createdAt,value
2023-05-10T00:01:57.363Z,67.61
2023-05-10T00:04:30.172Z,67.60
2023-05-10T00:06:58.949Z,67.64
2023-05-10T00:09:27.433Z,67.69
2023-05-10T00:11:55.648Z,67.86
2023-05-10T00:14:23.917Z,67.86
2023-05-10T00:16:53.646Z,67.66
2023-05-10T00:19:22.232Z,66.79
2023-05-10T00:21:50.184Z,66.71
2023-05-10T00:24:18.419Z,66.79
2023-05-10T00:26:46.741Z,66.44
2023-05-10T00:29:16.145Z,65.85
2023-05-10T00:31:44.429Z,65.63
2023-05-10T00:34:12.990Z,65.16
2023-05-10T00:36:41.127Z,64.93
2023-05-10T00:39:10.053Z,65.03
2023-05-10T00:41:38.373Z,65.15
2023-05-10T00:44:07.121Z,65.11
2023-05-10T00:46:36.037Z,65.21
2023-05-10T00:49:05.480Z,65.88
2023-05-10T00:51:33.991Z,66.39
2023-05-10T00:54:02.370Z,66.65
2023-05-10T00:56:31.125Z,66.86
2023-05-10T00:58:59.280Z,66.83
2023-05-10T01:01:27.635Z,66.71
2023-05-10T01:04:01.310Z,66.77
2023-05-10T01:06:30.302Z,66.80
2023-05-10T01:08:58.476Z,66.44
2023-05-10T01:11:51.986Z,66.46
2023-05-10T01:14:21.757Z,66.55
2023-05-10T01:16:54.638Z,66.46
2023-05-10T01:19:30.316Z,66.47
2023-05-10T01:22:34.295Z,66.63
2023-05-10T01:25:30.924Z,66.78
2023-05-10T01:28:35.776Z,67.27
2023-05-10T01:31:25.812Z,67.46
2023-05-10T01:34:16.667Z,67.68
2023-05-10T01:37:15.313Z,67.90
2023-05-10T01:39:52.223Z,68.44
2023-05-10T01:42:28.895Z,68.59
2023-05-10T01:45:15.296Z,68.63
2023-05-10T01:47:46.270Z,68.77
2023-05-10T01:50:23.112Z,69.04
2023-05-10T01:52:57.110Z,69.11
2023-05-10T01:55:32.867Z,69.22
2023-05-10T01:58:11.590Z,69.20
2023-05-10T02:00:47.665Z,69.12
2023-05-10T02:03:19.576Z,69.08
2023-05-10T02:05:52.085Z,68.74
2023-05-10T02:08:44.832Z,68.71
2023-05-10T02:11:15.870Z,68.78
2023-05-10T02:13:46.500Z,68.67
2023-05-10T02:16:16.244Z,68.58
2023-05-10T02:18:46.736Z,68.59
2023-05-10T02:21:18.699Z,68.72
2023-05-10T02:23:50.257Z,69.18
2023-05-10T02:26:23.553Z,69.14
2023-05-10T02:28:56.642Z,69.20
2023-05-10T02:31:26.104Z,69.57
2023-05-10T02:34:14.775Z,69.64
2023-05-10T02:36:45.113Z,69.58
2023-05-10T02:39:15.578Z,69.02
2023-05-10T02:41:48.361Z,68.43
2023-05-10T02:44:22.437Z,68.33
2023-05-10T02:46:51.676Z,68.16
2023-05-10T02:49:20.238Z,68.14
2023-05-10T02:51:58.019Z,68.10
2023-05-10T02:54:42.747Z,68.22
2023-05-10T03:01:19.010Z,68.77
2023-05-10T03:03:47.032Z,68.89
2023-05-10T03:06:15.634Z,69.11
2023-05-10T03:08:47.289Z,69.07
2023-05-10T03:11:36.854Z,69.31
2023-05-10T03:14:38.555Z,69.46
2023-05-10T03:17:34.247Z,69.45
2023-05-10T03:20:12.169Z,69.46
2023-05-10T03:22:51.972Z,69.27
2023-05-10T03:25:23.731Z,69.10
2023-05-10T03:27:56.972Z,69.04
2023-05-10T03:30:27.721Z,68.69
2023-05-10T03:32:56.448Z,68.49
2023-05-10T03:35:25.555Z,68.47
2023-05-10T03:37:54.320Z,68.81
2023-05-10T03:40:22.803Z,68.78
2023-05-10T03:42:51.172Z,68.51
2023-05-10T03:45:19.568Z,68.54
2023-05-10T03:47:47.960Z,68.50
2023-05-10T03:50:16.702Z,68.37
2023-05-10T03:52:46.129Z,68.26
2023-05-10T03:55:14.138Z,68.25
2023-05-10T03:57:42.366Z,68.22
2023-05-10T04:00:11.284Z,68.12
2023-05-10T04:02:46.532Z,68.25
2023-05-10T04:05:35.054Z,68.22
2023-05-10T04:08:05.269Z,68.20
2023-05-10T04:10:33.759Z,68.23
2023-05-10T04:13:02.449Z,68.12
2023-05-10T04:15:30.574Z,68.09
2023-05-10T04:17:58.978Z,67.72
2023-05-10T04:20:27.978Z,67.33
2023-05-10T04:22:56.263Z,67.16
2023-05-10T04:25:24.834Z,67.10
2023-05-10T04:28:25.481Z,67.48
2023-05-10T04:30:53.786Z,67.51
2023-05-10T04:33:22.774Z,67.40
2023-05-10T04:35:50.974Z,67.13
2023-05-10T04:38:19.023Z,66.30
2023-05-10T04:40:47.373Z,66.26
2023-05-10T04:43:16.039Z,66.20
2023-05-10T04:45:44.828Z,66.34
2023-05-10T04:48:13.718Z,66.61
2023-05-10T04:50:42.917Z,66.40
2023-05-10T04:53:11.829Z,66.12
2023-05-10T04:55:40.654Z,65.25
2023-05-10T04:58:08.767Z,65.21
2023-05-10T05:00:37.650Z,64.75
2023-05-10T05:03:06.981Z,64.96
2023-05-10T05:10:18.927Z,65.01
2023-05-10T05:12:47.881Z,65.45
2023-05-10T05:15:18.514Z,65.94
2023-05-10T05:17:46.525Z,65.39
2023-05-10T05:20:16.391Z,64.95
2023-05-10T05:22:44.858Z,64.63
2023-05-10T05:25:13.780Z,64.27
2023-05-10T05:27:42.543Z,64.51
2023-05-10T05:30:11.247Z,63.95
2023-05-10T05:32:42.935Z,63.16
2023-05-10T05:35:12.792Z,61.38
2023-05-10T05:37:43.529Z,59.79
2023-05-10T05:40:15.831Z,59.92
2023-05-10T05:43:38.513Z,59.53
2023-05-10T05:46:07.571Z,59.29
2023-05-10T05:48:36.426Z,59.18
2023-05-10T05:51:07.096Z,60.50
2023-05-10T05:53:39.848Z,59.29
2023-05-10T05:56:09.476Z,59.69
2023-05-10T05:58:37.729Z,59.70
2023-05-10T06:01:06.004Z,58.81
2023-05-10T06:03:34.616Z,58.52
2023-05-10T06:06:02.958Z,56.28
2023-05-10T06:08:31.335Z,55.75
2023-05-10T06:10:59.620Z,55.86
2023-05-10T06:13:33.932Z,55.77
2023-05-10T06:16:04.288Z,55.33
2023-05-10T06:18:33.757Z,55.28
2023-05-10T06:21:02.639Z,55.02
2023-05-10T06:27:52.580Z,55.13
2023-05-10T06:30:24.979Z,54.59
2023-05-10T06:32:53.158Z,55.05
2023-05-10T06:35:21.686Z,54.18
2023-05-10T06:37:50.683Z,54.10
2023-05-10T06:45:00.158Z,53.32
2023-05-10T06:47:28.241Z,53.18
2023-05-10T06:49:57.719Z,52.82
2023-05-10T06:52:26.100Z,50.87
2023-05-10T06:55:02.572Z,51.34
2023-05-10T06:57:32.077Z,51.27
2023-05-10T07:00:09.076Z,51.76
2023-05-10T07:02:37.692Z,51.60
2023-05-10T07:05:19.660Z,51.72
2023-05-10T07:07:48.821Z,50.36
2023-05-10T07:10:17.320Z,50.08
2023-05-10T07:12:45.714Z,50.32
2023-05-10T07:15:13.942Z,50.54
2023-05-10T07:17:44.074Z,49.87
2023-05-10T07:20:14.672Z,49.62
2023-05-10T07:22:42.978Z,48.49
2023-05-10T07:25:12.203Z,48.56
2023-05-10T07:27:40.108Z,47.99
2023-05-10T07:30:09.239Z,47.16
2023-05-10T07:32:37.864Z,46.13
2023-05-10T07:35:08.022Z,46.63
2023-05-10T07:37:36.321Z,47.03
2023-05-10T07:40:05.207Z,47.73
2023-05-10T07:42:34.286Z,47.49
2023-05-10T07:45:02.307Z,47.56
2023-05-10T07:47:30.336Z,46.63
2023-05-10T07:50:00.978Z,46.30
2023-05-10T07:52:29.450Z,45.86
2023-05-10T07:59:09.267Z,46.55
2023-05-10T08:01:38.830Z,47.56
2023-05-10T08:04:07.126Z,48.16
2023-05-10T08:06:39.265Z,48.90
2023-05-10T08:09:07.715Z,48.79
2023-05-10T08:11:36.630Z,49.50
2023-05-10T08:14:05.014Z,49.02
2023-05-10T08:16:35.369Z,47.75
2023-05-10T08:19:05.868Z,46.91
2023-05-10T08:21:34.863Z,46.47
2023-05-10T08:24:04.158Z,47.32
2023-05-10T08:26:35.801Z,46.77
2023-05-10T08:29:04.242Z,45.50
2023-05-10T08:31:32.344Z,44.93
2023-05-10T08:34:04.984Z,43.94
2023-05-10T08:36:33.707Z,44.13
2023-05-10T08:39:02.203Z,45.25
2023-05-10T08:41:37.142Z,45.51
2023-05-10T08:44:09.925Z,46.22
2023-05-10T08:46:41.469Z,45.45
2023-05-10T08:49:32.235Z,44.99
2023-05-10T08:52:24.644Z,45.75
2023-05-10T08:54:53.526Z,45.50
2023-05-10T08:57:22.401Z,45.25
2023-05-10T08:59:50.578Z,45.16
2023-05-10T09:02:22.559Z,45.79
2023-05-10T09:04:52.112Z,46.39
2023-05-10T09:07:21.258Z,47.11
2023-05-10T09:09:50.072Z,46.38
2023-05-10T09:12:17.932Z,45.37
2023-05-10T09:14:48.008Z,46.42
2023-05-10T09:17:16.050Z,45.46
2023-05-10T09:19:46.610Z,43.87
2023-05-10T09:22:14.857Z,45.38
2023-05-10T09:24:48.381Z,45.57
2023-05-10T09:27:16.763Z,44.49
2023-05-10T09:29:44.939Z,44.15
2023-05-10T09:33:03.100Z,44.03
2023-05-10T09:35:37.392Z,44.18
2023-05-10T09:38:06.087Z,43.32
2023-05-10T09:40:34.131Z,43.05
2023-05-10T09:43:08.470Z,43.41
2023-05-10T09:45:38.962Z,43.99
2023-05-10T09:48:08.231Z,44.60
2023-05-10T09:50:36.789Z,45.00
2023-05-10T09:53:07.581Z,44.23
2023-05-10T09:55:50.535Z,44.32
2023-05-10T09:58:18.560Z,44.67
2023-05-10T10:00:52.812Z,45.18
2023-05-10T10:03:22.522Z,44.72
2023-05-10T10:05:51.626Z,44.90
2023-05-10T10:08:20.619Z,45.22
2023-05-10T10:10:48.818Z,45.69
2023-05-10T10:13:18.485Z,45.93
2023-05-10T10:15:49.253Z,45.51
2023-05-10T10:18:19.022Z,45.12
2023-05-10T10:20:47.455Z,45.22
2023-05-10T10:23:17.580Z,44.87
2023-05-10T10:30:48.220Z,43.69
2023-05-10T10:33:34.753Z,44.03
2023-05-10T10:36:05.388Z,43.31
2023-05-10T10:38:49.003Z,43.33
2023-05-10T10:42:09.932Z,43.19
2023-05-10T10:44:43.125Z,43.60
2023-05-10T10:47:26.828Z,43.36
2023-05-10T10:50:01.330Z,42.90
2023-05-10T10:52:36.487Z,41.43
2023-05-10T10:55:12.417Z,41.89
2023-05-10T10:57:53.630Z,41.95
2023-05-10T11:00:29.957Z,42.66
2023-05-10T11:03:00.176Z,42.89
2023-05-10T11:05:28.789Z,41.75
2023-05-10T11:08:00.433Z,42.50
2023-05-10T11:10:28.812Z,42.05
2023-05-10T11:13:12.495Z,42.57
2023-05-10T11:15:49.044Z,42.04
2023-05-10T11:18:21.639Z,41.20
2023-05-10T11:20:53.663Z,40.72
2023-05-10T11:27:28.196Z,42.28
2023-05-10T11:29:57.180Z,42.34
2023-05-10T11:32:25.432Z,42.97
2023-05-10T11:35:19.180Z,43.14
2023-05-10T11:37:50.615Z,43.23
2023-05-10T11:40:18.933Z,43.19
2023-05-10T11:42:49.026Z,42.21
2023-05-10T11:45:17.500Z,42.14
2023-05-10T11:47:45.865Z,42.74
2023-05-10T11:50:14.035Z,42.93
2023-05-10T11:52:42.330Z,44.31
2023-05-10T11:55:11.289Z,44.82
2023-05-10T11:57:44.227Z,45.01
2023-05-10T12:00:13.433Z,44.56
2023-05-10T12:02:48.632Z,44.54
2023-05-10T12:05:17.580Z,44.66
2023-05-10T12:07:45.838Z,43.93
2023-05-10T12:10:16.758Z,43.70
2023-05-10T12:12:52.617Z,43.43
2023-05-10T12:15:25.048Z,43.65
2023-05-10T12:17:53.413Z,43.68
2023-05-10T12:20:23.966Z,43.15
2023-05-10T12:22:57.738Z,43.13
2023-05-10T12:25:37.113Z,45.47
2023-05-10T12:28:11.285Z,46.88
2023-05-10T12:30:40.675Z,47.69
2023-05-10T12:33:17.843Z,47.76
2023-05-10T12:35:55.859Z,48.43
2023-05-10T12:38:37.019Z,48.67
2023-05-10T12:41:07.323Z,49.11
2023-05-10T12:43:36.939Z,49.02
2023-05-10T12:46:11.457Z,49.09
2023-05-10T12:48:40.948Z,48.65
2023-05-10T12:51:29.260Z,48.76
2023-05-10T12:53:57.413Z,49.26
2023-05-10T12:56:26.419Z,50.17
2023-05-10T12:58:54.824Z,50.77
2023-05-10T13:01:23.460Z,50.89
2023-05-10T13:03:52.247Z,51.51
2023-05-10T13:07:09.931Z,52.51
2023-05-10T13:09:38.608Z,53.03
2023-05-10T13:12:08.738Z,52.37
2023-05-10T13:14:38.552Z,51.96
2023-05-10T13:17:06.588Z,51.94
2023-05-10T13:19:34.881Z,51.64
2023-05-10T13:22:03.182Z,51.23
2023-05-10T13:24:31.365Z,51.56
2023-05-10T13:26:59.461Z,52.31
2023-05-10T13:29:27.499Z,52.42
2023-05-10T13:31:56.032Z,52.07
2023-05-10T13:34:25.291Z,52.12
2023-05-10T13:36:56.908Z,51.75
2023-05-10T13:39:25.170Z,51.57
2023-05-10T13:41:55.727Z,51.69
2023-05-10T13:44:24.841Z,52.49
2023-05-10T13:46:53.094Z,52.76
2023-05-10T13:49:22.724Z,52.57
2023-05-10T13:51:50.773Z,51.39
2023-05-10T13:54:21.689Z,51.59
2023-05-10T13:56:49.929Z,51.17
2023-05-10T13:59:17.891Z,51.70
2023-05-10T14:01:46.420Z,50.89
2023-05-10T14:04:14.765Z,50.69
2023-05-10T14:06:43.198Z,51.09
2023-05-10T14:09:11.521Z,52.56
2023-05-10T14:11:43.614Z,52.51
2023-05-10T14:15:01.456Z,51.95
2023-05-10T14:17:29.625Z,52.06
2023-05-10T14:19:58.779Z,51.29
2023-05-10T14:22:27.070Z,51.21
2023-05-10T14:24:55.188Z,51.99
2023-05-10T14:27:24.155Z,51.73
2023-05-10T14:29:52.233Z,51.49
2023-05-10T14:32:20.361Z,51.62
2023-05-10T14:34:48.586Z,51.63
2023-05-10T14:37:17.609Z,51.17
2023-05-10T14:39:45.694Z,51.43
2023-05-10T14:42:13.811Z,50.58
2023-05-10T14:44:41.812Z,50.62
2023-05-10T14:47:11.865Z,50.59
2023-05-10T14:49:57.996Z,50.21
2023-05-10T14:52:52.048Z,50.50
2023-05-10T14:55:20.531Z,50.50
2023-05-10T14:57:51.283Z,51.08
2023-05-10T15:00:20.948Z,51.31
2023-05-10T15:02:50.119Z,51.17
2023-05-10T15:05:18.967Z,50.31
2023-05-10T15:07:47.521Z,50.83
2023-05-10T15:10:15.820Z,51.25
2023-05-10T15:12:44.000Z,51.14
2023-05-10T15:15:12.065Z,51.37
2023-05-10T15:17:40.072Z,52.50
2023-05-10T15:20:09.001Z,52.77
2023-05-10T15:22:37.071Z,52.31
2023-05-10T15:25:05.641Z,52.70
2023-05-10T15:27:33.807Z,52.25
2023-05-10T15:30:02.224Z,52.08
2023-05-10T15:32:30.304Z,51.56
2023-05-10T15:34:59.175Z,51.49
2023-05-10T15:37:31.788Z,51.59
2023-05-10T15:40:06.580Z,51.94
2023-05-10T15:42:34.586Z,51.96
2023-05-10T15:45:02.671Z,51.62
2023-05-10T15:47:31.807Z,51.15
2023-05-10T15:50:00.506Z,51.43
2023-05-10T15:52:29.012Z,51.84
2023-05-10T15:54:59.019Z,51.72
2023-05-10T15:57:27.199Z,52.24
2023-05-10T15:59:56.415Z,52.78
2023-05-10T16:02:24.624Z,53.16
2023-05-10T16:04:53.396Z,52.95
2023-05-10T16:07:21.959Z,52.47
2023-05-10T16:09:50.151Z,52.59
2023-05-10T16:12:18.672Z,52.58
2023-05-10T16:14:47.182Z,52.60
2023-05-10T16:17:15.491Z,52.58
2023-05-10T16:19:43.750Z,52.61
2023-05-10T16:22:11.929Z,52.56
2023-05-10T16:24:40.178Z,52.61
2023-05-10T16:27:08.912Z,52.59
2023-05-10T16:29:37.166Z,52.59
2023-05-10T16:32:05.806Z,52.25
2023-05-10T16:34:34.584Z,52.04
2023-05-10T16:37:02.502Z,52.11
2023-05-10T16:39:31.318Z,52.33
2023-05-10T16:41:59.370Z,52.47
2023-05-10T16:53:18.766Z,55.17
2023-05-10T16:55:47.712Z,55.39
2023-05-10T16:58:21.533Z,55.71
2023-05-10T17:00:49.954Z,55.71
2023-05-10T17:03:18.705Z,55.52
2023-05-10T17:05:46.856Z,55.75
2023-05-10T17:08:15.016Z,55.78
2023-05-10T17:10:43.213Z,56.12
2023-05-10T17:13:11.213Z,56.94
2023-05-10T17:15:39.800Z,56.89
2023-05-10T17:18:08.539Z,56.89
2023-05-10T17:20:36.858Z,56.65
2023-05-10T17:23:04.955Z,56.70
2023-05-10T17:25:53.714Z,57.06
2023-05-10T17:28:22.052Z,57.53
2023-05-10T17:30:58.401Z,57.63
2023-05-10T17:33:26.501Z,58.37
2023-05-10T17:35:55.724Z,58.64
2023-05-10T17:38:25.317Z,58.62
2023-05-10T17:40:53.725Z,58.47
2023-05-10T17:43:22.008Z,58.25
2023-05-10T17:45:50.084Z,58.37
2023-05-10T17:48:18.193Z,58.58
2023-05-10T17:50:46.508Z,58.73
2023-05-10T17:53:16.564Z,58.76
2023-05-10T17:55:45.133Z,58.48
2023-05-10T17:58:13.321Z,58.39
2023-05-10T18:00:41.473Z,58.56
2023-05-10T18:03:11.946Z,58.42
2023-05-10T18:05:40.063Z,58.49
2023-05-10T18:08:08.864Z,58.31
2023-05-10T18:10:39.991Z,58.26
2023-05-10T18:13:09.459Z,58.23
2023-05-10T18:15:37.624Z,57.94
2023-05-10T18:18:05.953Z,58.15
2023-05-10T18:20:34.803Z,58.36
2023-05-10T18:23:03.443Z,58.34
2023-05-10T18:25:31.510Z,58.58
2023-05-10T18:27:59.710Z,58.74
2023-05-10T18:30:27.975Z,58.86
2023-05-10T18:32:56.284Z,59.37
2023-05-10T18:35:24.504Z,59.55
2023-05-10T18:37:52.670Z,59.73
2023-05-10T18:40:21.167Z,59.42
2023-05-10T18:42:50.815Z,59.60
2023-05-10T18:45:19.519Z,59.97
2023-05-10T18:47:48.726Z,59.81
2023-05-10T18:50:18.864Z,60.48
2023-05-10T18:52:47.087Z,61.33
2023-05-10T18:55:15.471Z,61.65
2023-05-10T18:57:45.388Z,62.41
2023-05-10T19:00:14.573Z,62.62
2023-05-10T19:02:43.036Z,62.73
2023-05-10T19:05:11.222Z,63.22
2023-05-10T19:07:47.029Z,63.37
2023-05-10T19:10:15.114Z,63.30
2023-05-10T19:12:43.226Z,63.43
2023-05-10T19:15:11.766Z,63.93
2023-05-10T19:17:42.080Z,64.13
2023-05-10T19:20:30.937Z,64.90
2023-05-10T19:23:09.869Z,65.22
2023-05-10T19:25:42.526Z,65.82
2023-05-10T19:28:19.337Z,66.19
2023-05-10T19:30:47.406Z,66.26
2023-05-10T19:33:15.561Z,66.87
2023-05-10T19:35:43.732Z,67.15
2023-05-10T19:38:13.012Z,67.24
2023-05-10T19:40:41.192Z,67.12
2023-05-10T19:43:09.478Z,67.04
2023-05-10T19:45:37.770Z,66.96
2023-05-10T19:48:06.625Z,66.41
2023-05-10T19:50:34.978Z,66.45
2023-05-10T19:53:03.113Z,66.49
2023-05-10T19:55:32.812Z,66.68
2023-05-10T19:58:00.961Z,66.40
2023-05-10T20:00:29.387Z,66.10
2023-05-10T20:02:59.134Z,66.09
2023-05-10T20:05:27.442Z,66.24
2023-05-10T20:07:55.630Z,66.01
2023-05-10T20:10:25.714Z,66.16
2023-05-10T20:12:59.051Z,65.99
2023-05-10T20:15:30.012Z,65.59
2023-05-10T20:17:58.303Z,65.70
2023-05-10T20:20:26.675Z,65.55
2023-05-10T20:22:54.809Z,65.45
2023-05-10T20:25:23.029Z,65.28
2023-05-10T20:27:51.652Z,65.16
2023-05-10T20:30:20.024Z,64.68
2023-05-10T20:32:48.588Z,64.42
2023-05-10T20:35:16.942Z,64.68
2023-05-10T20:37:50.720Z,65.01
2023-05-10T20:40:19.095Z,65.17
2023-05-10T20:42:47.956Z,65.18
2023-05-10T20:45:16.247Z,65.84
2023-05-10T20:47:44.492Z,65.99
2023-05-10T20:50:12.697Z,66.27
2023-05-10T20:52:40.850Z,66.99
2023-05-10T20:55:09.746Z,66.94
2023-05-10T20:57:37.994Z,66.67
2023-05-10T21:00:09.593Z,66.52
2023-05-10T21:02:38.230Z,66.25
2023-05-10T21:05:07.240Z,65.92
2023-05-10T21:18:06.707Z,65.92
2023-05-10T21:20:34.876Z,65.73
2023-05-10T21:23:03.555Z,65.42
2023-05-10T21:25:32.407Z,65.93
2023-05-10T21:28:01.013Z,66.41
2023-05-10T21:30:29.211Z,66.57
2023-05-10T21:33:00.014Z,66.70
2023-05-10T21:39:12.542Z,67.12
2023-05-10T21:41:40.826Z,67.36
2023-05-10T21:44:09.449Z,67.86
2023-05-10T21:46:37.872Z,68.15
2023-05-10T21:49:06.038Z,68.50
2023-05-10T21:51:35.076Z,68.88
2023-05-10T21:54:03.415Z,69.19
2023-05-10T21:56:31.444Z,69.41
2023-05-10T21:58:59.700Z,69.47
2023-05-10T22:01:29.178Z,70.03
2023-05-10T22:03:57.257Z,70.18
2023-05-10T22:06:25.600Z,70.59
2023-05-10T22:08:53.933Z,71.34
2023-05-10T22:11:22.122Z,71.40
2023-05-10T22:13:50.108Z,71.11
2023-05-10T22:16:18.526Z,71.56
2023-05-10T22:18:46.804Z,71.70
2023-05-10T22:21:15.027Z,71.26
2023-05-10T22:23:42.953Z,71.23
2023-05-10T22:26:13.991Z,71.35
2023-05-10T22:28:43.205Z,71.57
2023-05-10T22:35:19.249Z,71.98
2023-05-10T22:37:47.466Z,72.23
2023-05-10T22:40:15.642Z,72.37
2023-05-10T22:42:44.019Z,72.56
2023-05-10T22:45:12.453Z,72.55
2023-05-10T22:47:41.186Z,72.37
2023-05-10T22:50:10.379Z,72.19
2023-05-10T22:52:39.440Z,71.79
2023-05-10T22:55:09.342Z,71.81
2023-05-10T23:01:45.652Z,71.49
2023-05-10T23:04:13.727Z,71.29
2023-05-10T23:06:41.792Z,71.62
2023-05-10T23:09:12.719Z,71.86
2023-05-10T23:11:41.991Z,71.75
2023-05-10T23:14:10.457Z,71.34
2023-05-10T23:16:38.720Z,71.00
2023-05-10T23:19:10.310Z,70.67
2023-05-10T23:21:38.685Z,70.56
2023-05-10T23:24:08.967Z,70.56
2023-05-10T23:26:37.338Z,70.78
2023-05-10T23:29:05.741Z,70.63
2023-05-10T23:31:33.855Z,71.05
2023-05-10T23:34:04.131Z,70.78
2023-05-10T23:36:33.834Z,70.80
2023-05-10T23:39:02.166Z,71.16
2023-05-10T23:41:30.276Z,70.83
2023-05-10T23:43:58.369Z,70.65
2023-05-10T23:46:26.696Z,70.51
2023-05-10T23:49:14.583Z,70.41
2023-05-10T23:51:42.885Z,70.47
2023-05-10T23:54:11.310Z,70.24
2023-05-10T23:56:39.398Z,69.98
2023-05-10T23:59:07.633Z,70.01
